createdAt,value
2018-09-21T00:00:42.290Z,10.37
2018-09-21T00:03:11.128Z,8.10
2018-09-21T00:05:39.044Z,9.13
2018-09-21T00:08:06.711Z,7.80
2018-09-21T00:10:34.530Z,11.60
2018-09-21T00:13:02.014Z,8.03
2018-09-21T00:15:29.649Z,7.50
2018-09-21T00:17:57.485Z,8.43
2018-09-21T00:20:25.160Z,8.20
2018-09-21T00:22:52.600Z,8.87
2018-09-21T00:25:25.269Z,10.30
2018-09-21T00:27:52.808Z,7.50
2018-09-21T00:30:20.300Z,8.73
2018-09-21T00:32:47.799Z,7.33
2018-09-21T00:35:15.381Z,11.43
2018-09-21T00:37:43.019Z,11.90
2018-09-21T00:40:10.609Z,7.73
2018-09-21T00:42:38.063Z,9.30
2018-09-21T00:45:05.769Z,7.90
2018-09-21T00:47:33.238Z,8.67
2018-09-21T00:50:00.717Z,8.30
2018-09-21T00:52:28.168Z,8.77
2018-09-21T00:54:55.646Z,9.10
2018-09-21T00:57:23.203Z,9.90
2018-09-21T00:59:50.675Z,9.20
2018-09-21T01:02:18.109Z,8.33
2018-09-21T01:04:45.547Z,8.10
2018-09-21T01:07:14.196Z,9.03
2018-09-21T01:09:41.907Z,7.97
2018-09-21T01:12:09.394Z,7.80
2018-09-21T01:14:36.844Z,8.43
2018-09-21T01:17:04.725Z,7.67
2018-09-21T01:19:32.184Z,7.43
2018-09-21T01:21:59.672Z,8.37
2018-09-21T01:24:27.119Z,8.70
2018-09-21T01:26:54.625Z,6.60
2018-09-21T01:29:22.056Z,8.90
2018-09-21T01:31:49.540Z,9.87
2018-09-21T01:34:17.000Z,8.10
2018-09-21T01:36:44.555Z,7.83
2018-09-21T01:39:12.003Z,8.33
2018-09-21T01:41:39.666Z,9.73
2018-09-21T01:44:07.953Z,9.10
2018-09-21T01:46:35.534Z,9.40
2018-09-21T01:49:03.171Z,9.53
2018-09-21T01:51:30.679Z,7.60
2018-09-21T01:53:58.125Z,8.53
2018-09-21T01:56:25.703Z,7.60
2018-09-21T01:58:53.153Z,10.87
2018-09-21T02:01:20.893Z,8.27
2018-09-21T02:03:48.409Z,9.10
2018-09-21T02:06:15.879Z,7.70
2018-09-21T02:08:43.542Z,10.20
2018-09-21T02:11:11.108Z,7.30
2018-09-21T02:13:38.605Z,9.20
2018-09-21T02:16:06.118Z,11.83
2018-09-21T02:18:33.704Z,7.23
2018-09-21T02:21:01.194Z,8.87
2018-09-21T02:23:28.721Z,10.03
2018-09-21T02:25:56.249Z,9.07
2018-09-21T02:28:24.217Z,7.67
2018-09-21T02:30:51.776Z,8.63
2018-09-21T02:33:19.441Z,8.60
2018-09-21T02:35:46.913Z,7.80
2018-09-21T02:38:14.365Z,8.07
2018-09-21T02:40:41.869Z,6.90
2018-09-21T02:43:09.319Z,7.23
2018-09-21T02:45:36.805Z,10.80
2018-09-21T02:48:04.269Z,7.77
2018-09-21T02:50:31.745Z,7.87
2018-09-21T02:52:59.240Z,8.80
2018-09-21T02:55:26.733Z,9.10
2018-09-21T02:57:54.189Z,9.00
2018-09-21T03:00:21.699Z,7.10
2018-09-21T03:02:49.128Z,7.30
2018-09-21T03:05:16.629Z,7.73
2018-09-21T03:07:44.089Z,7.43
2018-09-21T03:10:11.579Z,7.07
2018-09-21T03:12:39.031Z,7.73
2018-09-21T03:15:06.704Z,8.43
2018-09-21T03:17:37.969Z,7.00
2018-09-21T03:20:05.770Z,7.80
2018-09-21T03:22:33.196Z,12.83
2018-09-21T03:25:00.688Z,9.57
2018-09-21T03:27:28.191Z,9.17
2018-09-21T03:29:55.689Z,7.30
2018-09-21T03:32:23.175Z,8.10
2018-09-21T03:34:50.722Z,7.77
2018-09-21T03:37:18.170Z,7.73
2018-09-21T03:39:45.681Z,8.10
2018-09-21T03:42:13.156Z,8.17
2018-09-21T03:44:40.698Z,7.20
2018-09-21T03:47:08.196Z,8.53
2018-09-21T03:49:35.631Z,8.20
2018-09-21T03:52:03.117Z,7.73
2018-09-21T03:54:30.542Z,9.57
2018-09-21T03:56:58.046Z,8.00
2018-09-21T03:59:25.497Z,9.33
2018-09-21T04:01:52.989Z,9.10
2018-09-21T04:04:20.447Z,8.47
2018-09-21T04:06:47.970Z,8.37
2018-09-21T04:09:15.426Z,8.70
2018-09-21T04:11:42.978Z,8.63
2018-09-21T04:14:10.423Z,10.20
2018-09-21T04:16:37.888Z,8.70
2018-09-21T04:19:05.508Z,7.67
2018-09-21T04:21:32.977Z,7.33
2018-09-21T04:24:00.410Z,7.73
2018-09-21T04:26:27.918Z,7.90
2018-09-21T04:28:55.426Z,9.43
2018-09-21T04:31:22.904Z,8.17
2018-09-21T04:33:50.391Z,9.93
2018-09-21T04:36:17.852Z,8.90
2018-09-21T04:38:45.357Z,8.03
2018-09-21T04:41:12.838Z,9.00
2018-09-21T04:43:40.400Z,9.30
2018-09-21T04:46:07.851Z,7.17
2018-09-21T04:48:35.311Z,7.03
2018-09-21T04:51:02.768Z,9.23
2018-09-21T04:53:30.238Z,7.93
2018-09-21T04:55:57.685Z,7.63
2018-09-21T04:58:25.178Z,8.40
2018-09-21T05:00:52.947Z,6.97
2018-09-21T05:03:20.411Z,6.90
2018-09-21T05:05:47.861Z,7.87
2018-09-21T05:08:15.352Z,6.87
2018-09-21T05:10:42.817Z,7.07
2018-09-21T05:13:12.264Z,7.03
2018-09-21T05:15:39.720Z,8.93
2018-09-21T05:18:07.203Z,7.80
2018-09-21T05:20:34.647Z,12.37
2018-09-21T05:23:02.125Z,9.93
2018-09-21T05:25:30.527Z,11.17
2018-09-21T05:27:57.980Z,7.10
2018-09-21T05:30:25.472Z,9.27
2018-09-21T05:32:52.939Z,9.13
2018-09-21T05:35:20.418Z,7.80
2018-09-21T05:37:47.913Z,8.27
2018-09-21T05:40:15.387Z,7.47
2018-09-21T05:42:43.015Z,8.03
2018-09-21T05:45:10.509Z,9.83
2018-09-21T05:47:37.940Z,9.20
2018-09-21T05:50:05.485Z,11.03
2018-09-21T05:52:32.924Z,10.20
2018-09-21T05:55:00.413Z,7.30
2018-09-21T05:57:27.873Z,8.87
2018-09-21T05:59:55.432Z,14.77
2018-09-21T06:02:22.942Z,9.80
2018-09-21T06:04:55.012Z,8.20
2018-09-21T06:07:22.446Z,10.27
2018-09-21T06:09:49.937Z,8.60
2018-09-21T06:12:17.428Z,8.30
2018-09-21T06:14:44.910Z,8.43
2018-09-21T06:17:13.832Z,7.00
2018-09-21T06:19:41.362Z,8.10
2018-09-21T06:22:08.874Z,7.87
2018-09-21T06:24:36.434Z,8.07
2018-09-21T06:27:03.913Z,10.50
2018-09-21T06:29:31.352Z,8.20
2018-09-21T06:31:58.860Z,14.50
2018-09-21T06:34:26.316Z,7.60
2018-09-21T06:36:53.813Z,9.07
2018-09-21T06:39:21.316Z,7.67
2018-09-21T06:41:49.781Z,11.00
2018-09-21T06:44:17.221Z,9.07
2018-09-21T06:46:44.716Z,8.03
2018-09-21T06:49:12.166Z,8.70
2018-09-21T06:51:39.656Z,9.00
2018-09-21T06:54:07.092Z,8.63
2018-09-21T06:56:34.616Z,7.73
2018-09-21T06:59:02.485Z,7.30
2018-09-21T07:01:30.054Z,12.20
2018-09-21T07:03:57.501Z,8.67
2018-09-21T07:06:24.991Z,8.40
2018-09-21T07:08:52.703Z,8.37
2018-09-21T07:11:20.213Z,7.37
2018-09-21T07:13:47.641Z,8.63
2018-09-21T07:16:15.172Z,7.57
2018-09-21T07:18:42.732Z,9.70
2018-09-21T07:21:10.267Z,7.20
2018-09-21T07:23:37.734Z,8.83
2018-09-21T07:26:05.259Z,7.57
2018-09-21T07:28:32.712Z,7.73
2018-09-21T07:31:00.227Z,9.30
2018-09-21T07:33:27.892Z,8.00
2018-09-21T07:35:55.448Z,9.73
2018-09-21T07:38:22.998Z,7.40
2018-09-21T07:40:50.537Z,8.77
2018-09-21T07:43:18.226Z,7.63
2018-09-21T07:45:45.712Z,8.33
2018-09-21T07:48:13.257Z,7.33
2018-09-21T07:50:40.789Z,7.67
2018-09-21T07:53:08.284Z,7.20
2018-09-21T07:55:35.807Z,8.23
2018-09-21T07:58:03.325Z,10.63
2018-09-21T08:00:30.781Z,7.23
2018-09-21T08:02:58.337Z,8.00
2018-09-21T08:05:33.021Z,7.90
2018-09-21T08:08:01.851Z,7.13
2018-09-21T08:10:29.858Z,7.17
2018-09-21T08:12:57.518Z,8.13
2018-09-21T08:15:24.953Z,9.73
2018-09-21T08:17:52.694Z,10.80
2018-09-21T08:20:20.178Z,7.60
2018-09-21T08:22:47.716Z,8.70
2018-09-21T08:25:15.146Z,7.50
2018-09-21T08:27:42.643Z,7.80
2018-09-21T08:30:10.104Z,8.37
2018-09-21T08:32:37.579Z,7.00
2018-09-21T08:35:05.082Z,7.43
2018-09-21T08:37:32.572Z,6.60
2018-09-21T08:40:00.053Z,7.77
2018-09-21T08:42:27.514Z,7.53
2018-09-21T08:44:55.024Z,8.00
2018-09-21T08:47:22.594Z,6.50
2018-09-21T08:49:50.102Z,7.93
2018-09-21T08:52:17.581Z,10.43
2018-09-21T08:54:45.026Z,9.37
2018-09-21T08:57:12.531Z,10.57
2018-09-21T08:59:40.023Z,7.90
2018-09-21T09:02:07.482Z,9.57
2018-09-21T09:04:34.902Z,7.97
2018-09-21T09:07:02.372Z,8.80
2018-09-21T09:09:29.822Z,9.80
2018-09-21T09:11:57.350Z,8.00
2018-09-21T09:14:24.807Z,9.97
2018-09-21T09:16:52.319Z,13.63
2018-09-21T09:19:19.793Z,18.70
2018-09-21T09:21:47.250Z,16.93
2018-09-21T09:24:14.758Z,16.87
2018-09-21T09:26:42.200Z,12.27
2018-09-21T09:29:09.691Z,12.07
2018-09-21T09:31:37.186Z,11.93
2018-09-21T09:34:04.727Z,12.80
2018-09-21T09:36:32.183Z,10.93
2018-09-21T09:38:59.657Z,14.40
2018-09-21T09:41:27.114Z,7.37
2018-09-21T09:43:54.654Z,8.97
2018-09-21T09:46:22.165Z,11.20
2018-09-21T09:48:49.734Z,10.00
2018-09-21T09:51:17.234Z,10.07
2018-09-21T09:53:44.721Z,10.20
2018-09-21T09:56:12.168Z,9.13
2018-09-21T09:58:39.648Z,12.10
2018-09-21T10:01:07.176Z,15.83
2018-09-21T10:03:34.819Z,9.47
2018-09-21T10:06:02.194Z,9.10
2018-09-21T10:08:29.659Z,12.77
2018-09-21T10:10:57.193Z,12.77
2018-09-21T10:13:25.756Z,8.57
2018-09-21T10:15:53.332Z,10.60
2018-09-21T10:18:20.748Z,7.70
2018-09-21T10:20:48.359Z,13.67
2018-09-21T10:23:15.854Z,20.70
2018-09-21T10:25:43.342Z,13.47
2018-09-21T10:28:10.871Z,10.77
2018-09-21T10:30:38.449Z,11.80
2018-09-21T10:33:06.042Z,8.23
2018-09-21T10:35:33.650Z,10.07
2018-09-21T10:38:01.013Z,10.67
2018-09-21T10:40:28.595Z,6.90
2018-09-21T10:42:56.057Z,12.80
2018-09-21T10:45:23.525Z,7.20
2018-09-21T10:47:51.368Z,9.33
2018-09-21T10:50:18.870Z,11.73
2018-09-21T10:52:46.429Z,11.20
2018-09-21T10:55:13.897Z,6.70
2018-09-21T10:57:41.490Z,10.07
2018-09-21T11:00:10.062Z,9.47
2018-09-21T11:02:37.809Z,9.27
2018-09-21T11:05:05.316Z,9.20
2018-09-21T11:07:33.003Z,9.37
2018-09-21T11:10:00.954Z,7.70
2018-09-21T11:12:28.660Z,6.57
2018-09-21T11:14:56.110Z,6.47
2018-09-21T11:17:23.631Z,9.53
2018-09-21T11:19:51.184Z,7.77
2018-09-21T11:22:18.688Z,11.17
2018-09-21T11:24:46.149Z,6.80
2018-09-21T11:27:13.764Z,6.80
2018-09-21T11:29:41.209Z,6.40
2018-09-21T11:32:08.669Z,7.03
2018-09-21T11:34:36.124Z,10.70
2018-09-21T11:37:03.602Z,8.33
2018-09-21T11:39:31.089Z,6.97
2018-09-21T11:41:58.561Z,6.63
2018-09-21T11:44:26.006Z,8.13
2018-09-21T11:46:53.630Z,8.03
2018-09-21T11:49:20.957Z,7.17
2018-09-21T11:51:48.433Z,8.40
2018-09-21T11:54:15.866Z,6.83
2018-09-21T11:56:43.333Z,7.13
2018-09-21T11:59:10.789Z,7.27
2018-09-21T12:01:38.274Z,6.90
2018-09-21T12:04:05.798Z,9.10
2018-09-21T12:06:33.278Z,7.17
2018-09-21T12:09:01.019Z,10.00
2018-09-21T12:11:28.525Z,11.60
2018-09-21T12:13:55.948Z,12.47
2018-09-21T12:16:23.409Z,9.57
2018-09-21T12:18:50.872Z,9.23
2018-09-21T12:21:18.422Z,8.03
2018-09-21T12:23:45.982Z,7.57
2018-09-21T12:26:13.470Z,4.30
2018-09-21T12:28:40.951Z,6.50
2018-09-21T12:31:08.459Z,7.10
2018-09-21T12:33:35.975Z,5.57
2018-09-21T12:36:05.015Z,8.93
2018-09-21T12:38:32.807Z,6.57
2018-09-21T12:41:00.255Z,4.77
2018-09-21T12:43:27.753Z,6.90
2018-09-21T12:45:55.210Z,4.60
2018-09-21T12:48:22.707Z,4.67
2018-09-21T12:50:50.163Z,5.20
2018-09-21T12:53:17.677Z,7.00
2018-09-21T12:55:45.156Z,4.77
2018-09-21T12:58:12.703Z,6.47
2018-09-21T13:00:45.707Z,5.37
2018-09-21T13:03:13.177Z,5.87
2018-09-21T13:05:40.731Z,5.93
2018-09-21T13:08:08.228Z,6.53
2018-09-21T13:10:35.677Z,5.90
2018-09-21T13:13:03.176Z,9.23
2018-09-21T13:15:30.636Z,4.67
2018-09-21T13:17:58.094Z,8.23
2018-09-21T13:20:25.675Z,6.23
2018-09-21T13:22:53.159Z,5.60
2018-09-21T13:25:20.592Z,7.47
2018-09-21T13:27:48.115Z,7.43
2018-09-21T13:30:15.634Z,8.50
2018-09-21T13:32:43.122Z,5.90
2018-09-21T13:35:10.638Z,7.87
2018-09-21T13:37:38.137Z,7.50
2018-09-21T13:40:05.712Z,7.53
2018-09-21T13:42:33.184Z,4.90
2018-09-21T13:45:00.696Z,4.70
2018-09-21T13:47:28.127Z,5.17
2018-09-21T13:49:55.637Z,7.53
2018-09-21T13:52:23.134Z,3.33
2018-09-21T13:54:50.687Z,7.77
2018-09-21T13:57:18.194Z,5.77
2018-09-21T13:59:45.697Z,3.90
2018-09-21T14:02:13.150Z,5.67
2018-09-21T14:04:40.635Z,6.67
2018-09-21T14:07:08.090Z,5.40
2018-09-21T14:09:35.546Z,7.90
2018-09-21T14:12:03.006Z,7.37
2018-09-21T14:14:30.460Z,4.57
2018-09-21T14:16:57.892Z,5.63
2018-09-21T14:19:25.452Z,7.60
2018-09-21T14:21:52.924Z,6.97
2018-09-21T14:24:20.399Z,7.40
2018-09-21T14:26:47.822Z,5.63
2018-09-21T14:29:15.382Z,6.10
2018-09-21T14:31:42.836Z,6.63
2018-09-21T14:34:10.537Z,6.70
2018-09-21T14:36:38.367Z,9.97
2018-09-21T14:39:07.756Z,7.77
2018-09-21T14:41:35.222Z,9.00
2018-09-21T14:44:02.988Z,9.53
2018-09-21T14:46:30.479Z,8.97
2018-09-21T14:48:57.932Z,9.27
2018-09-21T14:51:25.448Z,9.13
2018-09-21T14:53:52.925Z,8.20
2018-09-21T14:56:20.408Z,5.63
2018-09-21T14:58:47.861Z,8.00
2018-09-21T15:01:15.345Z,6.93
2018-09-21T15:03:42.777Z,8.23
2018-09-21T15:06:10.225Z,7.20
2018-09-21T15:08:37.688Z,6.53
2018-09-21T15:11:05.205Z,8.70
2018-09-21T15:13:32.669Z,6.63
2018-09-21T15:16:00.132Z,5.87
2018-09-21T15:18:27.569Z,5.90
2018-09-21T15:20:55.145Z,8.03
2018-09-21T15:23:22.603Z,6.00
2018-09-21T15:25:50.120Z,8.03
2018-09-21T15:28:17.644Z,6.90
2018-09-21T15:30:45.265Z,6.60
2018-09-21T15:33:13.041Z,8.50
2018-09-21T15:35:40.705Z,4.90
2018-09-21T15:38:08.481Z,7.33
2018-09-21T15:40:35.960Z,6.97
2018-09-21T15:43:03.610Z,6.03
2018-09-21T15:45:31.143Z,12.73
2018-09-21T15:47:58.702Z,4.60
2018-09-21T15:50:26.835Z,11.07
2018-09-21T15:52:54.383Z,7.07
2018-09-21T15:55:21.821Z,5.60
2018-09-21T15:57:49.328Z,8.87
2018-09-21T16:00:17.144Z,8.17
2018-09-21T16:02:44.656Z,5.83
2018-09-21T16:05:12.152Z,9.13
2018-09-21T16:07:39.604Z,5.60
2018-09-21T16:10:07.130Z,9.97
2018-09-21T16:12:34.617Z,5.93
2018-09-21T16:15:02.077Z,10.60
2018-09-21T16:17:29.615Z,8.20
2018-09-21T16:19:57.108Z,6.70
2018-09-21T16:22:24.600Z,8.20
2018-09-21T16:24:52.029Z,5.10
2018-09-21T16:27:19.494Z,7.30
2018-09-21T16:29:46.937Z,4.93
2018-09-21T16:32:14.408Z,6.43
2018-09-21T16:34:41.857Z,4.60
2018-09-21T16:37:09.317Z,5.30
2018-09-21T16:39:36.871Z,4.80
2018-09-21T16:42:04.373Z,4.30
2018-09-21T16:44:31.893Z,2.30
2018-09-21T16:46:59.438Z,3.83
2018-09-21T16:49:26.858Z,3.23
2018-09-21T16:51:55.287Z,7.47
2018-09-21T16:54:22.717Z,4.53
2018-09-21T16:56:50.203Z,3.43
2018-09-21T16:59:17.713Z,4.20
2018-09-21T17:01:45.218Z,2.47
2018-09-21T17:04:12.772Z,3.67
2018-09-21T17:06:40.330Z,5.70
2018-09-21T17:09:09.828Z,3.73
2018-09-21T17:11:37.295Z,3.50
2018-09-21T17:14:04.748Z,4.50
2018-09-21T17:16:32.237Z,4.00
2018-09-21T17:18:59.713Z,6.30
2018-09-21T17:21:27.187Z,8.10
2018-09-21T17:23:54.645Z,3.60
2018-09-21T17:26:22.701Z,3.23
2018-09-21T17:28:50.543Z,4.73
2018-09-21T17:31:18.125Z,4.03
2018-09-21T17:33:45.685Z,3.40
2018-09-21T17:36:13.242Z,6.10
2018-09-21T17:38:40.760Z,4.83
2018-09-21T17:41:08.452Z,4.13
2018-09-21T17:43:36.021Z,4.03
2018-09-21T17:46:03.564Z,5.03
2018-09-21T17:48:31.021Z,2.90
2018-09-21T17:50:58.452Z,6.23
2018-09-21T17:53:26.157Z,3.07
2018-09-21T17:55:53.648Z,2.63
2018-09-21T17:58:21.156Z,4.50
2018-09-21T18:00:48.731Z,2.43
2018-09-21T18:03:16.287Z,2.33
2018-09-21T18:05:43.742Z,1.90
2018-09-21T18:08:11.257Z,4.50
2018-09-21T18:10:38.694Z,4.33
2018-09-21T18:13:06.228Z,3.03
2018-09-21T18:15:33.740Z,3.40
2018-09-21T18:18:01.336Z,3.27
2018-09-21T18:20:28.810Z,4.57
2018-09-21T18:22:56.373Z,4.20
2018-09-21T18:25:23.977Z,6.40
2018-09-21T18:27:51.570Z,3.33
2018-09-21T18:30:19.043Z,2.77
2018-09-21T18:32:46.937Z,2.83
2018-09-21T18:35:14.719Z,4.27
2018-09-21T18:37:42.187Z,4.73
2018-09-21T18:40:09.737Z,3.33
2018-09-21T18:42:37.290Z,4.53
2018-09-21T18:45:06.066Z,5.20
2018-09-21T18:47:33.578Z,3.17
2018-09-21T18:50:01.031Z,5.30
2018-09-21T18:52:28.529Z,3.70
2018-09-21T18:54:56.050Z,4.83
2018-09-21T18:57:23.505Z,3.97
2018-09-21T18:59:51.105Z,3.50
2018-09-21T19:02:18.568Z,4.60
2018-09-21T19:04:46.082Z,5.40
2018-09-21T19:07:19.438Z,2.80
2018-09-21T19:09:46.965Z,2.60
2018-09-21T19:12:14.417Z,3.43
2018-09-21T19:14:41.888Z,9.37
2018-09-21T19:17:09.339Z,15.83
2018-09-21T19:19:36.841Z,18.73
2018-09-21T19:22:04.301Z,12.17
2018-09-21T19:24:31.903Z,6.73
2018-09-21T19:26:59.374Z,4.80
2018-09-21T19:29:26.898Z,3.70
2018-09-21T19:31:54.376Z,3.33
2018-09-21T19:34:21.862Z,5.77
2018-09-21T19:36:49.325Z,4.60
2018-09-21T19:39:16.827Z,2.50
2018-09-21T19:41:46.145Z,2.53
2018-09-21T19:44:13.688Z,2.80
2018-09-21T19:46:41.414Z,5.17
2018-09-21T19:49:08.909Z,2.10
2018-09-21T19:51:36.418Z,2.90
2018-09-21T19:54:03.924Z,2.17
2018-09-21T19:56:31.479Z,3.30
2018-09-21T19:58:58.962Z,2.30
2018-09-21T20:01:26.448Z,6.67
2018-09-21T20:03:53.957Z,4.50
2018-09-21T20:06:21.434Z,1.90
2018-09-21T20:08:48.943Z,3.67
2018-09-21T20:11:16.432Z,2.67
2018-09-21T20:13:43.912Z,3.47
2018-09-21T20:16:11.398Z,2.33
2018-09-21T20:18:38.912Z,2.73
2018-09-21T20:21:06.638Z,4.33
2018-09-21T20:23:34.073Z,3.80
2018-09-21T20:26:01.578Z,4.63
2018-09-21T20:28:29.069Z,3.00
2018-09-21T20:31:02.391Z,3.53
2018-09-21T20:33:31.543Z,2.20
2018-09-21T20:35:59.412Z,3.20
2018-09-21T20:38:27.669Z,2.63
2018-09-21T20:40:55.389Z,2.87
2018-09-21T20:43:22.994Z,1.90
2018-09-21T20:45:50.540Z,3.67
2018-09-21T20:48:18.070Z,3.53
2018-09-21T20:50:45.571Z,5.00
2018-09-21T20:53:13.006Z,2.93
2018-09-21T20:55:40.486Z,3.07
2018-09-21T20:58:08.176Z,4.07
2018-09-21T21:00:35.787Z,3.00
2018-09-21T21:03:03.245Z,3.93
2018-09-21T21:05:36.842Z,2.90
2018-09-21T21:08:04.682Z,2.57
2018-09-21T21:10:32.192Z,3.30
2018-09-21T21:12:59.829Z,1.20
2018-09-21T21:15:27.396Z,1.13
2018-09-21T21:17:54.904Z,1.47
2018-09-21T21:20:22.395Z,4.57
2018-09-21T21:22:49.952Z,2.17
2018-09-21T21:25:17.447Z,1.87
2018-09-21T21:27:44.982Z,2.37
2018-09-21T21:30:12.499Z,2.10
2018-09-21T21:32:39.941Z,2.47
2018-09-21T21:35:07.581Z,2.37
2018-09-21T21:37:35.034Z,3.63
2018-09-21T21:40:03.348Z,1.00
2018-09-21T21:42:31.172Z,1.57
2018-09-21T21:44:59.069Z,0.80
2018-09-21T21:47:27.242Z,0.87
2018-09-21T21:49:54.756Z,2.60
2018-09-21T21:52:22.243Z,1.00
2018-09-21T21:54:49.696Z,1.57
2018-09-21T21:57:17.169Z,1.00
2018-09-21T21:59:45.103Z,0.70
2018-09-21T22:02:13.113Z,0.80
2018-09-21T22:04:41.171Z,2.00
2018-09-21T22:07:09.365Z,0.80
2018-09-21T22:09:36.815Z,1.00
2018-09-21T22:12:10.158Z,0.90
2018-09-21T22:14:37.587Z,1.00
2018-09-21T22:17:05.379Z,0.50
2018-09-21T22:19:32.835Z,0.87
2018-09-21T22:22:00.345Z,1.13
2018-09-21T22:24:27.989Z,0.50
2018-09-21T22:26:55.957Z,1.67
2018-09-21T22:29:23.467Z,2.33
2018-09-21T22:31:51.040Z,0.60
2018-09-21T22:34:18.556Z,1.20
2018-09-21T22:36:46.147Z,1.00
2018-09-21T22:39:13.719Z,1.60
2018-09-21T22:41:41.276Z,0.93
2018-09-21T22:44:08.839Z,1.00
2018-09-21T22:46:36.394Z,1.27
2018-09-21T22:49:07.027Z,1.63
2018-09-21T22:51:34.525Z,0.87
2018-09-21T22:54:01.981Z,1.73
2018-09-21T22:56:29.469Z,0.90
2018-09-21T22:58:56.930Z,0.80
2018-09-21T23:01:24.550Z,1.17
2018-09-21T23:03:52.032Z,0.70
2018-09-21T23:06:19.533Z,1.10
2018-09-21T23:08:47.007Z,1.73
2018-09-21T23:11:14.508Z,1.10
2018-09-21T23:13:41.999Z,1.33
2018-09-21T23:16:09.512Z,0.50
2018-09-21T23:18:36.972Z,0.60
2018-09-21T23:21:04.492Z,1.50
2018-09-21T23:23:31.971Z,0.70
2018-09-21T23:25:59.428Z,1.03
2018-09-21T23:28:26.934Z,2.40
2018-09-21T23:30:54.503Z,1.33
2018-09-21T23:33:21.983Z,1.17
2018-09-21T23:35:49.436Z,2.77
2018-09-21T23:38:16.946Z,0.67
2018-09-21T23:40:44.433Z,1.13
2018-09-21T23:43:11.907Z,2.50
2018-09-21T23:45:39.365Z,1.43
2018-09-21T23:48:07.211Z,2.30
2018-09-21T23:50:34.681Z,1.10
2018-09-21T23:53:02.171Z,0.97
2018-09-21T23:55:29.610Z,0.70
2018-09-21T23:57:57.087Z,1.00
